Time;durP1;ratioP1;P1;durP2;ratioP2;P2;SDS_P1;SDS_P2;PMS_P1;PMS_P2;Temp;Humidity;BMP_temperature;BMP_pressure;BME280_temperature;BME280_humidity;BME280_pressure;Samples;Min_cycle;Max_cycle;Signal;HPM_P1;HPM_P2
2022/05/18 00:00:49;;;;;;;0.35;0.35;;;17.50;99.90;;;;;;5093889;28;20442;-78
2022/05/18 00:03:17;;;;;;;0.30;0.30;;;17.50;99.90;;;;;;5094707;28;20040;-81
2022/05/18 00:05:44;;;;;;;1.65;0.73;;;17.50;99.90;;;;;;5097932;28;20044;-77
2022/05/18 00:08:10;;;;;;;0.30;0.30;;;17.40;99.90;;;;;;5097943;28;20056;-79
2022/05/18 00:10:38;;;;;;;0.20;0.20;;;17.40;99.90;;;;;;5098078;28;20131;-79
2022/05/18 00:13:07;;;;;;;0.40;0.40;;;17.30;99.90;;;;;;5097739;28;20040;-79
2022/05/18 00:15:34;;;;;;;0.68;0.68;;;17.30;99.90;;;;;;5097670;28;20046;-79
2022/05/18 00:18:00;;;;;;;0.30;0.30;;;17.30;99.90;;;;;;5097270;28;20496;-77
2022/05/18 00:20:27;;;;;;;0.30;0.30;;;17.20;99.90;;;;;;5097513;28;20048;-77
2022/05/18 00:22:57;;;;;;;0.30;0.30;;;17.20;99.90;;;;;;5097554;28;20047;-81
2022/05/18 00:25:29;;;;;;;0.40;0.40;;;17.20;99.90;;;;;;5096612;28;20041;-80
2022/05/18 00:27:55;;;;;;;0.30;0.30;;;17.20;99.90;;;;;;5097524;28;20043;-79
2022/05/18 00:30:22;;;;;;;0.30;0.30;;;17.10;99.90;;;;;;5097340;28;20048;-79
2022/05/18 00:32:48;;;;;;;0.30;0.30;;;17.10;99.90;;;;;;5097342;28;20048;-80
2022/05/18 00:35:14;;;;;;;0.30;0.30;;;17.00;99.90;;;;;;5097359;28;20040;-77
2022/05/18 00:37:41;;;;;;;0.32;0.32;;;17.00;99.90;;;;;;5097290;28;20123;-80
2022/05/18 00:40:08;;;;;;;0.30;0.30;;;17.00;99.90;;;;;;5097311;28;20079;-77
2022/05/18 00:42:34;;;;;;;0.30;0.30;;;17.00;99.90;;;;;;5096629;28;20052;-80
2022/05/18 00:45:00;;;;;;;0.30;0.30;;;17.00;99.90;;;;;;5097033;28;20109;-77
2022/05/18 00:47:25;;;;;;;0.30;0.30;;;16.90;99.90;;;;;;5097110;28;20433;-77
2022/05/18 00:49:56;;;;;;;0.30;0.30;;;16.90;99.90;;;;;;5096962;28;20130;-78
2022/05/18 00:52:28;;;;;;;0.40;0.40;;;16.90;99.90;;;;;;5096867;28;20046;-78
2022/05/18 00:54:55;;;;;;;0.30;0.30;;;16.80;99.90;;;;;;5097011;28;20044;-79
2022/05/18 00:57:32;;;;;;;;;;;16.80;99.90;;;;;;5097163;28;20407;-79
2022/05/18 01:00:13;;;;;;;0.30;0.30;;;16.80;99.90;;;;;;5096810;28;20326;-80
2022/05/18 01:02:42;;;;;;;0.40;0.40;;;16.70;99.90;;;;;;5096561;28;20052;-80
2022/05/18 01:05:10;;;;;;;0.30;0.30;;;16.80;99.90;;;;;;5096773;28;20365;-79
2022/05/18 01:07:43;;;;;;;0.30;0.30;;;16.70;99.90;;;;;;5096824;28;20048;-76
2022/05/18 01:10:09;;;;;;;1.58;1.48;;;16.70;99.90;;;;;;5097348;28;20083;-79
2022/05/18 01:12:35;;;;;;;0.50;0.50;;;16.70;99.90;;;;;;5078789;28;20487;-77
2022/05/18 01:15:11;;;;;;;0.40;0.40;;;16.70;99.90;;;;;;5096404;28;20044;-78
2022/05/18 01:17:43;;;;;;;0.30;0.30;;;16.60;99.90;;;;;;5096440;28;20065;-79
2022/05/18 01:20:16;;;;;;;0.43;0.43;;;16.60;99.90;;;;;;5096529;28;20051;-79
2022/05/18 01:22:48;;;;;;;0.30;0.30;;;16.60;99.90;;;;;;5095481;28;20083;-76
2022/05/18 01:25:31;;;;;;;0.30;0.30;;;16.60;99.90;;;;;;5096281;28;20055;-79
2022/05/18 01:27:59;;;;;;;0.30;0.30;;;16.60;99.90;;;;;;5112808;28;20135;-79
2022/05/18 01:30:27;;;;;;;0.35;0.35;;;16.60;99.90;;;;;;5096336;28;20102;-79
2022/05/18 01:32:55;;;;;;;0.40;0.40;;;16.50;99.90;;;;;;5096187;28;20051;-80
2022/05/18 01:35:27;;;;;;;0.30;0.30;;;16.50;99.90;;;;;;5096421;28;20039;-79
2022/05/18 01:37:59;;;;;;;4.28;1.05;;;16.50;99.90;;;;;;5103806;28;20062;-76
2022/05/18 01:40:40;;;;;;;0.30;0.30;;;16.50;99.90;;;;;;5113273;28;20051;-77
2022/05/18 01:43:16;;;;;;;0.30;0.30;;;16.50;99.90;;;;;;5113691;28;20089;-76
2022/05/18 01:45:42;;;;;;;0.30;0.30;;;16.50;99.90;;;;;;5113570;28;20047;-78
2022/05/18 01:48:14;;;;;;;0.30;0.30;;;16.50;99.90;;;;;;5113272;28;20064;-77
2022/05/18 01:50:41;;;;;;;0.30;0.30;;;16.40;99.90;;;;;;5113155;28;20514;-77
2022/05/18 01:53:08;;;;;;;0.50;0.50;;;16.40;99.90;;;;;;5113209;28;20055;-77
2022/05/18 01:55:34;;;;;;;0.30;0.30;;;16.40;99.90;;;;;;5111645;28;20040;-77
2022/05/18 01:58:00;;;;;;;0.30;0.30;;;16.40;99.90;;;;;;5111742;28;20058;-77
2022/05/18 02:00:27;;;;;;;0.43;0.43;;;16.40;99.90;;;;;;5112246;28;20040;-77
2022/05/18 02:02:52;;;;;;;;;;;16.30;99.90;;;;;;5112618;28;20048;-77
2022/05/18 02:05:18;;;;;;;0.30;0.30;;;16.30;99.90;;;;;;5112841;28;20395;-78
2022/05/18 02:07:44;;;;;;;0.30;0.30;;;16.30;99.90;;;;;;5111825;28;20066;-77
2022/05/18 02:10:11;;;;;;;0.20;0.20;;;16.30;99.90;;;;;;5111398;28;20476;-78
2022/05/18 02:12:36;;;;;;;;;;;16.20;99.90;;;;;;5111570;28;20048;-76
2022/05/18 02:15:03;;;;;;;0.30;0.30;;;16.20;99.90;;;;;;5112314;28;19927;-77
2022/05/18 02:17:30;;;;;;;0.43;0.40;;;16.20;99.90;;;;;;5112050;28;20092;-77
2022/05/18 02:19:57;;;;;;;1.58;0.57;;;16.20;99.90;;;;;;5102195;28;20089;-77
2022/05/18 02:22:25;;;;;;;0.50;0.50;;;16.10;99.90;;;;;;5095800;28;20479;-78
2022/05/18 02:24:51;;;;;;;0.30;0.30;;;16.10;99.90;;;;;;5095746;28;20047;-78
2022/05/18 02:27:18;;;;;;;0.30;0.30;;;16.00;99.90;;;;;;5094750;28;20101;-80
2022/05/18 02:29:44;;;;;;;0.30;0.30;;;16.00;99.90;;;;;;5095375;28;20048;-78
2022/05/18 02:32:09;;;;;;;0.30;0.30;;;15.90;99.90;;;;;;5095375;28;20130;-78
2022/05/18 02:34:36;;;;;;;0.30;0.30;;;15.90;99.90;;;;;;5096990;28;20036;-78
2022/05/18 02:37:02;;;;;;;0.30;0.30;;;15.90;99.90;;;;;;5095135;28;20039;-81
2022/05/18 02:39:28;;;;;;;0.30;0.30;;;15.80;99.90;;;;;;5095346;28;20052;-77
2022/05/18 02:41:53;;;;;;;0.30;0.30;;;15.80;99.90;;;;;;5094920;28;20048;-79
2022/05/18 02:44:19;;;;;;;0.20;0.20;;;15.80;99.90;;;;;;5095072;28;20048;-78
2022/05/18 02:46:45;;;;;;;3.50;0.83;;;15.70;99.90;;;;;;5095389;28;20051;-77
2022/05/18 02:49:11;;;;;;;5.38;0.82;;;15.60;99.90;;;;;;5094869;28;20040;-77
2022/05/18 02:51:39;;;;;;;0.30;0.30;;;15.60;99.90;;;;;;5094378;28;20544;-77
2022/05/18 02:56:05;;;;;;;0.32;0.32;;;15.60;99.90;;;;;;5095041;28;20173;-79
2022/05/18 02:56:52;;;;;;;0.30;0.30;;;15.60;99.90;;;;;;5094968;28;20055;-80
2022/05/18 02:59:19;;;;;;;;;;;15.50;99.90;;;;;;5094842;28;20442;-79
2022/05/18 03:01:45;;;;;;;1.63;0.85;;;15.50;99.90;;;;;;5094635;28;19920;-78
2022/05/18 03:04:10;;;;;;;0.30;0.30;;;15.50;99.90;;;;;;5094710;28;20043;-78
2022/05/18 03:06:36;;;;;;;0.30;0.30;;;15.40;99.90;;;;;;5094558;28;20051;-78
2022/05/18 03:09:01;;;;;;;0.40;0.40;;;15.40;99.90;;;;;;5094836;28;20139;-77
2022/05/18 03:11:27;;;;;;;0.30;0.30;;;15.40;99.90;;;;;;5094281;28;20060;-81
2022/05/18 03:13:52;;;;;;;0.57;0.57;;;15.40;99.90;;;;;;5094456;28;20100;-78
2022/05/18 03:16:18;;;;;;;0.30;0.30;;;15.40;99.90;;;;;;5094483;28;20047;-80
2022/05/18 03:18:43;;;;;;;0.30;0.30;;;15.30;99.90;;;;;;5094495;28;20046;-78
2022/05/18 03:23:53;;;;;;;0.38;0.38;;;15.30;99.90;;;;;;5094177;28;20052;-80
2022/05/18 03:26:24;;;;;;;0.57;0.57;;;15.20;99.90;;;;;;5094216;28;20051;-78
2022/05/18 03:28:51;;;;;;;0.40;0.40;;;15.20;99.90;;;;;;5094511;28;20089;-77
2022/05/18 03:31:17;;;;;;;0.40;0.40;;;15.10;99.90;;;;;;5094001;28;20502;-78
2022/05/18 03:33:44;;;;;;;0.30;0.30;;;15.10;99.90;;;;;;5094068;28;20079;-77
2022/05/18 03:36:12;;;;;;;0.30;0.30;;;15.10;99.90;;;;;;5094226;28;20040;-77
2022/05/18 03:38:39;;;;;;;0.47;0.47;;;15.10;99.90;;;;;;5093012;28;20048;-78
2022/05/18 03:41:05;;;;;;;;;;;15.10;99.90;;;;;;5094570;28;20040;-78
2022/05/18 03:43:31;;;;;;;0.40;0.40;;;15.10;99.90;;;;;;5093939;28;19920;-79
2022/05/18 03:45:59;;;;;;;0.40;0.40;;;15.00;99.90;;;;;;5094120;28;20043;-80
2022/05/18 03:48:25;;;;;;;0.30;0.30;;;15.00;99.90;;;;;;5094058;28;20123;-76
2022/05/18 03:50:53;;;;;;;0.60;0.60;;;15.00;99.90;;;;;;5093896;28;20080;-77
2022/05/18 03:53:18;;;;;;;0.43;0.43;;;15.00;99.90;;;;;;5093961;28;20142;-76
2022/05/18 03:55:44;;;;;;;0.93;0.50;;;14.90;99.90;;;;;;5093799;28;20147;-77
2022/05/18 03:58:10;;;;;;;0.90;0.83;;;14.90;99.90;;;;;;5092897;28;20036;-77
2022/05/18 04:00:39;;;;;;;0.30;0.30;;;14.90;99.90;;;;;;5093883;28;20476;-79
2022/05/18 04:03:05;;;;;;;0.30;0.30;;;15.00;99.90;;;;;;5093899;28;20282;-78
2022/05/18 04:05:32;;;;;;;0.30;0.30;;;15.00;99.90;;;;;;5093758;28;20040;-76
2022/05/18 04:07:58;;;;;;;0.40;0.40;;;14.90;99.90;;;;;;5093224;28;20492;-79
2022/05/18 04:10:23;;;;;;;0.30;0.30;;;14.90;99.90;;;;;;5093886;28;20048;-78
2022/05/18 04:12:49;;;;;;;0.30;0.30;;;14.90;99.90;;;;;;5093467;28;20123;-80
2022/05/18 04:15:18;;;;;;;0.30;0.30;;;14.90;99.90;;;;;;5093720;28;20105;-78
2022/05/18 04:17:46;;;;;;;0.40;0.40;;;14.90;99.90;;;;;;5093782;28;20051;-77
2022/05/18 04:20:19;;;;;;;0.30;0.30;;;14.90;99.90;;;;;;5093658;28;20051;-78
2022/05/18 04:22:46;;;;;;;0.40;0.40;;;15.00;99.90;;;;;;5093478;28;20476;-77
2022/05/18 04:25:14;;;;;;;0.40;0.40;;;15.00;99.90;;;;;;5076271;28;20071;-79
2022/05/18 04:27:39;;;;;;;0.77;0.50;;;15.00;99.90;;;;;;5093480;28;20051;-77
2022/05/18 04:30:06;;;;;;;0.40;0.40;;;15.00;99.90;;;;;;5093455;28;20044;-77
2022/05/18 04:32:32;;;;;;;0.40;0.40;;;15.10;99.90;;;;;;5093462;28;20048;-79
2022/05/18 04:34:57;;;;;;;0.37;0.37;;;15.10;99.90;;;;;;5093388;28;20067;-77
2022/05/18 04:37:23;;;;;;;0.30;0.30;;;15.10;99.90;;;;;;5093474;28;20047;-77
2022/05/18 04:39:48;;;;;;;0.30;0.30;;;15.10;99.90;;;;;;5093336;28;20040;-79
2022/05/18 04:42:14;;;;;;;1.20;1.13;;;15.10;99.90;;;;;;5093459;28;20075;-79
2022/05/18 04:44:40;;;;;;;0.30;0.30;;;15.20;99.90;;;;;;5093737;28;20040;-76
2022/05/18 04:47:06;;;;;;;0.60;0.60;;;15.20;99.90;;;;;;5093608;28;20062;-79
2022/05/18 04:49:35;;;;;;;0.30;0.30;;;15.20;99.90;;;;;;5094678;28;20443;-77
2022/05/18 04:52:01;;;;;;;0.30;0.30;;;15.30;99.90;;;;;;5097130;28;20039;-76
2022/05/18 04:54:27;;;;;;;0.50;0.50;;;15.30;99.90;;;;;;5097036;28;20055;-78
2022/05/18 04:56:52;;;;;;;0.93;0.60;;;15.30;99.90;;;;;;5097140;28;20036;-80
2022/05/18 04:59:18;;;;;;;0.70;0.70;;;15.30;99.90;;;;;;5096858;28;20100;-80
2022/05/18 05:01:43;;;;;;;0.40;0.40;;;15.40;99.90;;;;;;5096993;28;20055;-79
2022/05/18 05:04:10;;;;;;;0.40;0.40;;;15.40;99.90;;;;;;5096824;28;20044;-78
2022/05/18 05:06:37;;;;;;;1.85;0.68;;;15.40;99.90;;;;;;5096818;28;20052;-82
2022/05/18 05:09:03;;;;;;;0.30;0.30;;;15.40;99.90;;;;;;5096784;28;20059;-83
2022/05/18 05:11:29;;;;;;;0.40;0.40;;;15.40;99.90;;;;;;5096913;28;20040;-82
2022/05/18 05:13:55;;;;;;;0.50;0.50;;;15.50;99.90;;;;;;5096925;28;20052;-82
2022/05/18 05:16:20;;;;;;;0.95;0.95;;;15.50;99.90;;;;;;5095611;28;20387;-83
2022/05/18 05:18:46;;;;;;;0.40;0.40;;;15.60;99.90;;;;;;5112457;28;20043;-81
2022/05/18 05:21:11;;;;;;;0.40;0.40;;;15.60;99.90;;;;;;5079082;28;20040;-84
2022/05/18 05:23:37;;;;;;;0.60;0.60;;;15.70;99.90;;;;;;5096574;28;20050;-77
2022/05/18 05:26:03;;;;;;;0.30;0.30;;;15.70;99.90;;;;;;5096642;28;20044;-79
2022/05/18 05:28:30;;;;;;;0.30;0.30;;;15.80;99.90;;;;;;5112357;28;20097;-81
2022/05/18 05:31:03;;;;;;;0.30;0.30;;;15.90;99.90;;;;;;5095006;28;20052;-82
2022/05/18 05:33:29;;;;;;;0.88;0.82;;;15.90;99.90;;;;;;5096203;28;20044;-82
2022/05/18 05:35:54;;;;;;;0.30;0.30;;;16.00;99.90;;;;;;5095354;28;20430;-82
2022/05/18 05:38:20;;;;;;;1.67;1.57;;;16.10;99.90;;;;;;5112077;28;20430;-82
2022/05/18 05:40:46;;;;;;;0.77;0.63;;;16.30;99.90;;;;;;5078815;28;20503;-82
2022/05/18 05:43:12;;;;;;;0.30;0.30;;;16.40;99.90;;;;;;5095295;28;20508;-83
2022/05/18 05:45:39;;;;;;;0.77;0.60;;;16.60;99.90;;;;;;5095349;28;20396;-83
2022/05/18 05:48:05;;;;;;;0.30;0.30;;;16.90;99.90;;;;;;5095353;28;20079;-83
2022/05/18 05:50:31;;;;;;;;;;;17.10;99.90;;;;;;5095680;28;20048;-86
2022/05/18 05:52:57;;;;;;;0.40;0.40;;;17.30;99.90;;;;;;5095071;28;19972;-82
2022/05/18 05:55:24;;;;;;;0.30;0.30;;;17.50;99.90;;;;;;5095250;28;20504;-83
2022/05/18 05:57:55;;;;;;;0.50;0.50;;;17.80;99.90;;;;;;5095620;28;20040;-85
2022/05/18 06:00:25;;;;;;;0.73;0.73;;;18.00;99.90;;;;;;5077615;28;20050;-86
2022/05/18 06:02:51;;;;;;;0.50;0.50;;;18.20;99.90;;;;;;5094947;28;20509;-82
2022/05/18 06:05:18;;;;;;;0.75;0.40;;;18.50;99.90;;;;;;5078235;28;20083;-81
2022/05/18 06:07:43;;;;;;;;;;;18.60;99.90;;;;;;5095022;28;20075;-83
2022/05/18 06:10:10;;;;;;;0.52;0.45;;;18.80;99.90;;;;;;5095669;28;20308;-86
2022/05/18 06:12:36;;;;;;;0.85;0.75;;;19.00;99.90;;;;;;5077506;28;20112;-85
2022/05/18 06:15:02;;;;;;;0.40;0.40;;;19.10;99.90;;;;;;5077959;28;20102;-82
2022/05/18 06:17:28;;;;;;;0.75;0.68;;;19.30;99.90;;;;;;5095610;28;20052;-82
2022/05/18 06:19:53;;;;;;;0.30;0.30;;;19.40;99.90;;;;;;5095657;28;20062;-82
2022/05/18 06:22:19;;;;;;;0.77;0.53;;;19.50;99.90;;;;;;5094769;28;20039;-81
2022/05/18 06:24:49;;;;;;;0.30;0.30;;;19.60;99.90;;;;;;5092229;28;20097;-83
2022/05/18 06:27:15;;;;;;;0.38;0.38;;;19.70;99.90;;;;;;5092648;28;20119;-82
2022/05/18 06:29:41;;;;;;;0.35;0.35;;;19.90;99.90;;;;;;5073006;28;20481;-83
2022/05/18 06:32:07;;;;;;;0.53;0.53;;;20.10;99.90;;;;;;5090033;28;20051;-83
2022/05/18 06:34:32;;;;;;;0.90;0.77;;;20.10;99.90;;;;;;5073930;28;20059;-83
2022/05/18 06:36:58;;;;;;;0.40;0.40;;;20.30;99.90;;;;;;5074446;28;20044;-83
2022/05/18 06:39:23;;;;;;;0.60;0.60;;;20.40;99.90;;;;;;5073385;28;20135;-83
2022/05/18 06:41:49;;;;;;;0.30;0.30;;;20.50;99.90;;;;;;5073615;28;20036;-81
2022/05/18 06:44:15;;;;;;;0.30;0.30;;;20.70;99.90;;;;;;5074658;28;20504;-83
2022/05/18 06:46:41;;;;;;;0.40;0.40;;;20.80;99.90;;;;;;5073084;28;20056;-82
2022/05/18 06:49:08;;;;;;;0.30;0.30;;;20.90;99.90;;;;;;5074625;28;20161;-85
2022/05/18 06:51:38;;;;;;;0.52;0.32;;;21.10;99.90;;;;;;5074664;28;20054;-83
2022/05/18 06:54:04;;;;;;;0.22;0.22;;;21.20;99.90;;;;;;5056719;28;20044;-83
2022/05/18 06:56:33;;;;;;;1.25;0.50;;;21.30;99.90;;;;;;5056785;28;20048;-83
2022/05/18 06:58:59;;;;;;;0.30;0.30;;;21.40;99.90;;;;;;5072918;28;20051;-83
2022/05/18 07:01:27;;;;;;;0.30;0.30;;;21.70;99.90;;;;;;5072990;28;20174;-83
2022/05/18 07:03:52;;;;;;;0.40;0.40;;;21.60;99.90;;;;;;5074302;28;20063;-83
2022/05/18 07:06:21;;;;;;;0.67;0.47;;;21.90;99.90;;;;;;5073378;28;20048;-85
2022/05/18 07:08:47;;;;;;;0.30;0.30;;;21.90;99.90;;;;;;5072834;28;20061;-83
2022/05/18 07:11:13;;;;;;;0.40;0.40;;;21.90;99.90;;;;;;5090234;28;20060;-83
2022/05/18 07:13:39;;;;;;;0.73;0.67;;;22.20;99.90;;;;;;5073070;28;20469;-83
2022/05/18 07:16:06;;;;;;;0.43;0.43;;;22.40;99.90;;;;;;5074107;28;20048;-84
2022/05/18 07:18:33;;;;;;;2.65;0.55;;;22.50;99.90;;;;;;5072957;28;20123;-84
2022/05/18 07:21:02;;;;;;;0.30;0.30;;;22.60;99.90;;;;;;5073767;28;20044;-83
2022/05/18 07:23:28;;;;;;;0.30;0.30;;;22.70;99.90;;;;;;5073853;28;20463;-84
2022/05/18 07:25:56;;;;;;;0.52;0.35;;;22.80;99.90;;;;;;5073075;28;20141;-83
2022/05/18 07:28:22;;;;;;;0.40;0.40;;;22.90;99.90;;;;;;5073753;28;20080;-84
2022/05/18 07:30:49;;;;;;;0.30;0.30;;;23.00;99.90;;;;;;5072559;28;20053;-84
2022/05/18 07:33:15;;;;;;;0.50;0.40;;;23.10;99.90;;;;;;5072471;28;20041;-83
2022/05/18 07:35:40;;;;;;;0.93;0.70;;;23.20;99.90;;;;;;5072413;28;20049;-84
2022/05/18 07:38:06;;;;;;;0.87;0.50;;;23.30;99.90;;;;;;5072717;28;20546;-84
2022/05/18 07:40:33;;;;;;;0.60;0.60;;;23.50;99.90;;;;;;5072692;28;20056;-84
2022/05/18 07:43:01;;;;;;;0.65;0.65;;;23.50;99.90;;;;;;5073202;28;20045;-81
2022/05/18 07:45:27;;;;;;;0.52;0.52;;;23.70;99.90;;;;;;5073537;28;20507;-79
2022/05/18 07:47:53;;;;;;;0.60;0.60;;;23.80;99.90;;;;;;5073906;28;20036;-79
2022/05/18 07:50:23;;;;;;;2.42;0.95;;;23.90;99.90;;;;;;5072271;28;20051;-80
2022/05/18 07:52:49;;;;;;;0.88;0.60;;;23.90;99.90;;;;;;5073599;28;20151;-87
2022/05/18 07:55:15;;;;;;;0.47;0.47;;;24.10;99.90;;;;;;5056245;28;20396;-87
2022/05/18 07:57:41;;;;;;;0.30;0.30;;;23.90;99.90;;;;;;5039337;28;20044;-86
2022/05/18 08:00:09;;;;;;;0.50;0.50;;;24.20;99.90;;;;;;5055868;28;20052;-88
2022/05/18 08:02:35;;;;;;;0.93;0.77;;;24.20;99.90;;;;;;5056191;28;20473;-88
2022/05/18 08:05:01;;;;;;;0.40;0.40;;;24.20;99.90;;;;;;5055524;28;20503;-84
2022/05/18 08:07:27;;;;;;;0.80;0.80;;;24.40;99.90;;;;;;5072625;28;20084;-89
2022/05/18 08:15:35;;;;;;;0.73;0.50;;;24.70;99.90;;;;;;5073619;28;19924;-82
2022/05/18 08:18:01;;;;;;;0.43;0.40;;;24.90;99.90;;;;;;5072838;28;20047;-84
2022/05/18 08:20:27;;;;;;;0.53;0.53;;;24.90;99.90;;;;;;5089179;28;20127;-86
2022/05/18 08:22:52;;;;;;;0.75;0.47;;;25.00;99.90;;;;;;5071945;28;20087;-84
2022/05/18 08:25:19;;;;;;;0.43;0.43;;;25.30;99.90;;;;;;5074943;28;20084;-84
2022/05/18 08:27:47;;;;;;;0.55;0.52;;;25.40;99.90;;;;;;5059679;28;20473;-84
2022/05/18 08:30:16;;;;;;;0.93;0.60;;;25.60;99.90;;;;;;5059205;28;20421;-85
2022/05/18 08:32:42;;;;;;;0.30;0.30;;;25.60;99.90;;;;;;5077052;28;20053;-85
2022/05/18 08:35:09;;;;;;;0.40;0.40;;;25.80;99.90;;;;;;5075812;28;20505;-84
2022/05/18 08:37:38;;;;;;;;;;;25.90;99.90;;;;;;5075953;28;20044;-84
2022/05/18 08:40:05;;;;;;;0.30;0.30;;;26.00;99.90;;;;;;5059355;28;19968;-84
2022/05/18 08:42:31;;;;;;;1.17;0.68;;;26.10;99.90;;;;;;5059174;28;20036;-87
2022/05/18 08:44:57;;;;;;;0.73;0.70;;;26.10;99.90;;;;;;5076138;28;20377;-83
2022/05/18 08:47:42;;;;;;;0.30;0.30;;;26.10;99.90;;;;;;5092220;28;20458;-83
2022/05/18 08:50:18;;;;;;;0.45;0.40;;;26.10;99.90;;;;;;5076194;28;20063;-83
2022/05/18 08:53:17;;;;;;;0.73;0.50;;;26.20;99.90;;;;;;5076083;28;20388;-83
2022/05/18 08:56:02;;;;;;;0.47;0.47;;;26.40;99.90;;;;;;5075494;28;20040;-83
2022/05/18 08:58:38;;;;;;;0.40;0.30;;;26.50;99.90;;;;;;5074887;28;20048;-83
2022/05/18 09:01:40;;;;;;;0.65;0.55;;;26.60;99.90;;;;;;5075627;28;20044;-83
2022/05/18 09:04:17;;;;;;;0.85;0.50;;;26.70;99.90;;;;;;5088229;28;20056;-83
2022/05/18 09:06:50;;;;;;;0.40;0.40;;;26.90;99.90;;;;;;5058674;28;20136;-83
2022/05/18 09:12:34;;;;;;;0.20;0.20;;;27.00;99.90;;;;;;5095917;28;20438;-87
2022/05/18 09:15:01;;;;;;;0.30;0.30;;;27.10;99.90;;;;;;5096078;28;20518;-81
2022/05/18 09:17:47;;;;;;;1.33;0.70;;;27.20;99.90;;;;;;5095390;28;20097;-83
2022/05/18 09:20:29;;;;;;;0.50;0.50;;;27.20;99.90;;;;;;5095463;28;20082;-84
2022/05/18 09:23:13;;;;;;;1.17;0.55;;;27.30;99.90;;;;;;5095683;28;20047;-86
2022/05/18 09:26:01;;;;;;;1.30;0.65;;;27.30;99.90;;;;;;5094781;28;20044;-85
2022/05/18 09:28:38;;;;;;;1.98;0.35;;;27.30;99.90;;;;;;5078649;28;20462;-85
2022/05/18 09:31:21;;;;;;;1.98;0.68;;;27.40;99.90;;;;;;5095084;28;20044;-85
2022/05/18 09:34:25;;;;;;;3.10;0.70;;;27.50;99.80;;;;;;5095287;28;20052;-86
2022/05/18 09:37:03;;;;;;;0.20;0.20;;;27.60;99.90;;;;;;5078068;28;20075;-86
2022/05/18 09:39:36;;;;;;;0.30;0.30;;;27.70;99.90;;;;;;5095702;28;20416;-85
2022/05/18 09:42:08;;;;;;;0.30;0.30;;;27.80;99.90;;;;;;5062228;28;20051;-85
2022/05/18 09:45:03;;;;;;;0.40;0.40;;;27.90;99.90;;;;;;5095922;28;20044;-84
2022/05/18 09:47:35;;;;;;;1.45;0.75;;;27.90;98.20;;;;;;5056503;28;20052;-83
2022/05/18 09:50:06;;;;;;;1.35;0.60;;;28.00;99.90;;;;;;5077931;28;20077;-86
2022/05/18 09:52:34;;;;;;;0.28;0.28;;;28.10;99.50;;;;;;5078131;28;20048;-86
2022/05/18 09:55:02;;;;;;;0.50;0.50;;;28.00;99.70;;;;;;5094926;28;20063;-88
2022/05/18 09:57:28;;;;;;;0.30;0.30;;;28.00;98.90;;;;;;5077926;28;20047;-82
2022/05/18 09:59:57;;;;;;;0.57;0.57;;;27.90;98.90;;;;;;5094449;28;20052;-81
2022/05/18 10:08:00;;;;;;;9.23;0.73;;;28.20;98.80;;;;;;5079268;28;20466;-83
2022/05/18 10:10:33;;;;;;;0.40;0.40;;;28.30;98.70;;;;;;5092036;28;20059;-81
2022/05/18 10:13:05;;;;;;;0.77;0.50;;;28.40;98.30;;;;;;5095337;28;20449;-78
2022/05/18 10:15:42;;;;;;;1.15;1.05;;;28.50;96.90;;;;;;5081731;28;20051;-78
2022/05/18 10:18:12;;;;;;;0.50;0.50;;;28.60;97.70;;;;;;5075179;28;20048;-79
2022/05/18 10:20:40;;;;;;;0.43;0.43;;;28.50;96.50;;;;;;5075377;28;20135;-77
2022/05/18 10:23:34;;;;;;;1.15;0.73;;;28.60;97.80;;;;;;5075382;28;20052;-78
2022/05/18 10:26:01;;;;;;;0.63;0.63;;;28.60;97.50;;;;;;5075157;28;20094;-79
2022/05/18 10:28:29;;;;;;;0.55;0.50;;;28.70;98.10;;;;;;5074706;28;20044;-86
2022/05/18 10:31:04;;;;;;;2.90;0.90;;;28.80;97.40;;;;;;5074725;28;20064;-81
2022/05/18 10:33:36;;;;;;;0.20;0.20;;;28.80;96.80;;;;;;5074295;28;20480;-81
2022/05/18 10:36:22;;;;;;;0.40;0.40;;;28.90;96.40;;;;;;5074831;28;20097;-85
2022/05/18 10:38:56;;;;;;;0.57;0.50;;;29.00;96.70;;;;;;5074772;28;20129;-83
2022/05/18 10:41:28;;;;;;;0.43;0.43;;;28.90;97.10;;;;;;5091099;28;20185;-82
2022/05/18 10:44:20;;;;;;;0.70;0.70;;;28.70;95.40;;;;;;5074845;28;20123;-82
2022/05/18 10:46:48;;;;;;;0.45;0.40;;;28.40;97.00;;;;;;5073513;28;20089;-85
2022/05/18 10:49:30;;;;;;;1.02;0.75;;;28.40;96.50;;;;;;5074567;28;20040;-80
2022/05/18 10:52:10;;;;;;;0.30;0.30;;;28.50;96.40;;;;;;5074866;28;20055;-80
2022/05/18 10:54:35;;;;;;;0.30;0.30;;;28.50;97.60;;;;;;5074693;28;20123;-80
2022/05/18 10:57:12;;;;;;;0.90;0.75;;;28.60;96.70;;;;;;5073015;28;20581;-78
2022/05/18 10:59:44;;;;;;;;;;;28.80;97.40;;;;;;5074756;28;20045;-78
2022/05/18 11:02:48;;;;;;;0.32;0.32;;;29.00;96.60;;;;;;5072649;28;20292;-78
2022/05/18 11:05:23;;;;;;;0.30;0.30;;;29.10;96.10;;;;;;5074353;28;20127;-79
2022/05/18 11:07:49;;;;;;;0.85;0.70;;;29.30;95.30;;;;;;5074317;28;20087;-78
2022/05/18 11:10:15;;;;;;;0.20;0.20;;;29.30;95.30;;;;;;5074698;28;20045;-79
2022/05/18 11:12:50;;;;;;;0.20;0.20;;;29.50;95.70;;;;;;5074268;28;20044;-79
2022/05/18 11:15:34;;;;;;;0.40;0.40;;;29.60;95.00;;;;;;5073996;28;20503;-78
2022/05/18 11:18:27;;;;;;;0.40;0.40;;;29.70;95.10;;;;;;5074290;28;20037;-78
2022/05/18 11:21:17;;;;;;;0.30;0.30;;;29.80;95.60;;;;;;5074517;28;20044;-79
2022/05/18 11:23:55;;;;;;;0.75;0.63;;;29.80;95.20;;;;;;5073003;28;20554;-79
2022/05/18 11:26:35;;;;;;;0.43;0.40;;;29.90;95.10;;;;;;5073989;28;20052;-79
2022/05/18 11:29:15;;;;;;;0.35;0.35;;;29.90;94.40;;;;;;5073894;28;20040;-79
2022/05/18 11:31:40;;;;;;;1.38;0.80;;;29.90;94.20;;;;;;5074220;28;20044;-78
2022/05/18 11:34:35;;;;;;;1.53;1.27;;;29.80;95.00;;;;;;5072913;28;20055;-78
2022/05/18 11:37:33;;;;;;;0.47;0.45;;;29.90;95.50;;;;;;5074041;28;20511;-79
2022/05/18 11:40:41;;;;;;;0.93;0.40;;;30.00;94.40;;;;;;5074235;28;20049;-79
2022/05/18 11:43:32;;;;;;;1.15;0.75;;;29.90;95.10;;;;;;5073845;28;20044;-78
2022/05/18 11:46:15;;;;;;;0.30;0.30;;;29.90;94.60;;;;;;5073717;28;20127;-78
2022/05/18 11:48:56;;;;;;;0.30;0.30;;;30.10;95.10;;;;;;5073951;28;20044;-78
2022/05/18 11:51:51;;;;;;;0.70;0.68;;;29.80;94.10;;;;;;5073751;28;20048;-79
2022/05/18 11:54:44;;;;;;;0.47;0.47;;;29.50;95.00;;;;;;5073210;28;20051;-82
2022/05/18 11:57:28;;;;;;;1.95;1.05;;;29.70;95.10;;;;;;5073490;28;20127;-79
2022/05/18 12:00:44;;;;;;;0.75;0.75;;;29.70;94.00;;;;;;5074244;28;20073;-80
2022/05/18 12:03:25;;;;;;;1.42;1.10;;;29.70;93.80;;;;;;5075934;28;20067;-80
2022/05/18 12:06:33;;;;;;;0.40;0.40;;;29.70;94.10;;;;;;5077797;28;20044;-80
2022/05/18 12:08:58;;;;;;;1.27;0.68;;;29.50;94.00;;;;;;5077854;28;20374;-81
2022/05/18 12:11:54;;;;;;;0.40;0.40;;;29.60;94.40;;;;;;5077465;28;20099;-80
2022/05/18 12:14:58;;;;;;;0.43;0.43;;;29.60;93.10;;;;;;5077712;28;20047;-80
2022/05/18 12:17:33;;;;;;;0.35;0.35;;;29.70;92.60;;;;;;5077445;28;20052;-81
2022/05/18 12:20:19;;;;;;;0.28;0.28;;;29.80;94.10;;;;;;5077536;28;20056;-79
2022/05/18 12:22:49;;;;;;;0.30;0.30;;;30.10;93.10;;;;;;5077399;28;20036;-79
2022/05/18 12:25:19;;;;;;;0.40;0.40;;;30.40;93.70;;;;;;5076533;28;20040;-79
2022/05/18 12:27:46;;;;;;;0.73;0.55;;;30.60;92.80;;;;;;5077359;28;20036;-79
2022/05/18 12:30:15;;;;;;;0.47;0.40;;;30.60;93.20;;;;;;5077171;28;20040;-78
2022/05/18 12:32:42;;;;;;;1.20;0.82;;;30.70;91.90;;;;;;5077167;28;20051;-78
2022/05/18 12:35:20;;;;;;;0.65;0.50;;;30.80;92.00;;;;;;5076216;28;20056;-78
2022/05/18 12:38:03;;;;;;;3.42;0.82;;;30.90;91.50;;;;;;5076923;28;20048;-80
2022/05/18 12:40:32;;;;;;;0.30;0.30;;;30.80;90.80;;;;;;5077129;28;20052;-80
2022/05/18 12:43:09;;;;;;;0.50;0.50;;;30.80;92.30;;;;;;5077306;28;20396;-79
2022/05/18 12:45:44;;;;;;;0.40;0.30;;;30.80;91.20;;;;;;5076643;28;20055;-77
2022/05/18 12:48:12;;;;;;;0.32;0.32;;;31.00;91.50;;;;;;5076955;28;20040;-78
2022/05/18 12:50:47;;;;;;;1.00;0.65;;;31.10;91.70;;;;;;5076829;28;20093;-77
2022/05/18 12:53:19;;;;;;;0.68;0.60;;;31.10;91.60;;;;;;5076867;28;20040;-79
2022/05/18 12:55:55;;;;;;;0.55;0.40;;;30.90;91.40;;;;;;5076573;28;20049;-80
2022/05/18 12:58:36;;;;;;;0.88;0.85;;;30.80;90.50;;;;;;5076262;28;20395;-80
2022/05/18 13:01:10;;;;;;;0.55;0.55;;;30.90;90.40;;;;;;5077004;28;20523;-81
2022/05/18 13:04:10;;;;;;;0.55;0.55;;;31.10;90.80;;;;;;5076632;28;20041;-78
2022/05/18 13:06:36;;;;;;;1.30;0.70;;;31.20;90.10;;;;;;5056773;28;20091;-77
2022/05/18 13:09:20;;;;;;;0.37;0.37;;;31.40;89.60;;;;;;5076171;28;20117;-81
2022/05/18 13:11:53;;;;;;;0.43;0.43;;;31.40;89.80;;;;;;5076271;28;20511;-82
2022/05/18 13:14:25;;;;;;;0.50;0.50;;;31.40;89.70;;;;;;5076399;28;20489;-80
2022/05/18 13:16:50;;;;;;;0.25;0.25;;;31.40;88.60;;;;;;5076469;28;20036;-82
2022/05/18 13:19:30;;;;;;;0.83;0.67;;;31.20;90.00;;;;;;5076404;28;20047;-83
2022/05/18 13:22:00;;;;;;;0.50;0.50;;;30.90;89.40;;;;;;5076288;28;20396;-80
2022/05/18 13:24:35;;;;;;;0.55;0.40;;;30.50;90.70;;;;;;5076362;28;20098;-82